createdAt,value
2022-11-01T00:02:19.267Z,9.07
2022-11-01T00:04:46.920Z,9.35
2022-11-01T00:07:14.411Z,9.07
2022-11-01T00:09:41.932Z,9.85
2022-11-01T00:12:09.458Z,9.60
2022-11-01T00:14:37.086Z,9.63
2022-11-01T00:17:05.253Z,9.32
2022-11-01T00:19:32.679Z,10.70
2022-11-01T00:22:00.236Z,9.75
2022-11-01T00:24:27.822Z,9.77
2022-11-01T00:26:56.646Z,9.30
2022-11-01T00:29:24.884Z,9.27
2022-11-01T00:34:40.448Z,9.88
2022-11-01T00:37:12.268Z,9.48
2022-11-01T00:39:40.399Z,10.38
2022-11-01T00:42:07.839Z,9.50
2022-11-01T00:44:35.390Z,8.52
2022-11-01T00:47:04.204Z,9.80
2022-11-01T00:49:31.750Z,9.32
2022-11-01T00:51:59.266Z,9.32
2022-11-01T00:54:27.085Z,8.88
2022-11-01T00:56:54.951Z,9.93
2022-11-01T00:59:22.481Z,9.80
2022-11-01T01:01:50.141Z,9.65
2022-11-01T01:04:18.074Z,10.35
2022-11-01T01:06:45.853Z,10.70
2022-11-01T01:09:13.519Z,10.43
2022-11-01T01:11:41.686Z,10.05
2022-11-01T01:14:09.672Z,10.60
2022-11-01T01:16:37.679Z,10.77
2022-11-01T01:19:05.835Z,10.65
2022-11-01T01:21:36.677Z,10.38
2022-11-01T01:24:04.236Z,10.02
2022-11-01T01:26:31.767Z,10.23
2022-11-01T01:29:00.717Z,9.95
2022-11-01T01:31:28.636Z,10.00
2022-11-01T01:33:58.156Z,10.05
2022-11-01T01:36:25.673Z,10.15
2022-11-01T01:38:53.861Z,10.40
2022-11-01T01:41:40.697Z,10.20
2022-11-01T01:44:51.856Z,10.60
2022-11-01T01:47:40.857Z,10.15
2022-11-01T01:50:20.870Z,10.23
2022-11-01T01:52:58.867Z,9.80
2022-11-01T01:55:46.565Z,10.00
2022-11-01T01:58:18.474Z,10.23
2022-11-01T02:00:46.288Z,10.18
2022-11-01T02:03:15.009Z,10.65
2022-11-01T02:05:55.279Z,10.38
2022-11-01T02:08:29.818Z,9.95
2022-11-01T02:11:08.614Z,10.52
2022-11-01T02:13:36.577Z,9.98
2022-11-01T02:16:06.728Z,9.68
2022-11-01T02:19:04.315Z,9.65
2022-11-01T02:21:53.929Z,9.80
2022-11-01T02:24:54.919Z,9.90
2022-11-01T02:28:04.952Z,9.75
2022-11-01T02:30:57.474Z,9.43
2022-11-01T02:33:47.757Z,8.63
2022-11-01T02:36:55.318Z,9.02
2022-11-01T02:39:32.911Z,8.68
2022-11-01T02:42:21.699Z,9.63
2022-11-01T02:45:09.335Z,9.80
2022-11-01T02:47:39.855Z,9.88
2022-11-01T02:50:12.517Z,9.35
2022-11-01T02:52:42.890Z,9.02
2022-11-01T02:55:30.971Z,9.40
2022-11-01T02:58:21.303Z,10.15
2022-11-01T03:00:49.485Z,9.50
2022-11-01T03:03:31.282Z,9.73
2022-11-01T03:06:01.793Z,9.52
2022-11-01T03:08:52.540Z,9.82
2022-11-01T03:11:26.935Z,9.25
2022-11-01T03:14:18.599Z,10.18
2022-11-01T03:17:56.938Z,9.10
2022-11-01T03:20:49.550Z,10.02
2022-11-01T03:23:26.699Z,9.65
2022-11-01T03:25:58.625Z,9.85
2022-11-01T03:28:41.362Z,9.38
2022-11-01T03:31:17.078Z,9.40
2022-11-01T03:33:54.064Z,9.23
2022-11-01T03:36:28.254Z,9.48
2022-11-01T03:41:34.074Z,9.70
2022-11-01T03:44:03.046Z,8.93
2022-11-01T03:46:30.786Z,9.80
2022-11-01T03:49:00.098Z,9.93
2022-11-01T03:51:28.680Z,9.88
2022-11-01T03:53:57.597Z,9.27
2022-11-01T03:56:25.189Z,9.18
2022-11-01T03:58:52.761Z,9.27
2022-11-01T04:01:21.037Z,9.55
2022-11-01T04:06:39.001Z,9.48
2022-11-01T04:09:06.884Z,9.15
2022-11-01T04:11:35.472Z,8.98
2022-11-01T04:14:21.812Z,9.15
2022-11-01T04:17:09.638Z,8.65
2022-11-01T04:19:56.215Z,8.68
2022-11-01T04:22:26.914Z,8.48
2022-11-01T04:24:54.402Z,8.40
2022-11-01T04:30:24.897Z,8.38
2022-11-01T04:32:53.359Z,8.07
2022-11-01T04:40:51.416Z,8.50
2022-11-01T04:46:04.343Z,8.27
2022-11-01T04:48:32.544Z,8.23
2022-11-01T04:51:02.671Z,8.18
2022-11-01T04:53:30.589Z,8.60
2022-11-01T04:55:58.648Z,8.70
2022-11-01T04:58:28.683Z,9.02
2022-11-01T05:00:56.866Z,9.40
2022-11-01T05:03:24.596Z,9.70
2022-11-01T05:05:52.226Z,9.38
2022-11-01T05:08:19.740Z,8.73
2022-11-01T05:10:47.552Z,8.75
2022-11-01T05:13:14.951Z,9.38
2022-11-01T05:15:59.254Z,9.80
2022-11-01T05:18:33.304Z,9.48
2022-11-01T05:21:00.953Z,10.68
2022-11-01T05:23:28.424Z,9.68
2022-11-01T05:25:56.939Z,9.43
2022-11-01T05:28:24.758Z,9.45
2022-11-01T05:30:52.207Z,8.82
2022-11-01T05:33:19.709Z,9.02
2022-11-01T05:35:47.228Z,8.77
2022-11-01T05:38:14.675Z,9.07
2022-11-01T05:40:42.207Z,9.48
2022-11-01T05:43:09.714Z,10.10
2022-11-01T05:45:37.513Z,9.60
2022-11-01T05:48:05.757Z,9.48
2022-11-01T05:50:35.943Z,9.25
2022-11-01T05:53:10.547Z,9.98
2022-11-01T05:55:39.522Z,9.15
2022-11-01T05:58:07.141Z,9.23
2022-11-01T06:00:35.799Z,9.30
2022-11-01T06:03:03.762Z,9.65
2022-11-01T06:05:32.353Z,10.68
2022-11-01T06:08:02.721Z,10.30
2022-11-01T06:10:30.848Z,9.98
2022-11-01T06:12:59.806Z,9.73
2022-11-01T06:15:27.598Z,9.02
2022-11-01T06:17:59.509Z,9.70
2022-11-01T06:21:30.078Z,9.77
2022-11-01T06:23:57.970Z,9.73
2022-11-01T06:26:25.980Z,10.10
2022-11-01T06:28:53.417Z,10.05
2022-11-01T06:31:22.360Z,9.70
2022-11-01T06:33:50.695Z,10.35
2022-11-01T06:36:18.366Z,10.30
2022-11-01T06:38:46.301Z,9.60
2022-11-01T06:41:16.162Z,9.32
2022-11-01T06:43:43.634Z,9.05
2022-11-01T06:46:11.738Z,9.30
2022-11-01T06:48:39.681Z,9.30
2022-11-01T06:51:07.442Z,10.13
2022-11-01T06:53:34.988Z,9.13
2022-11-01T06:56:03.158Z,9.50
2022-11-01T06:58:30.709Z,10.10
2022-11-01T07:00:58.489Z,9.52
2022-11-01T07:03:26.037Z,9.65
2022-11-01T07:05:53.774Z,9.02
2022-11-01T07:08:21.500Z,9.75
2022-11-01T07:10:52.020Z,9.20
2022-11-01T07:13:22.747Z,9.20
2022-11-01T07:15:50.152Z,9.75
2022-11-01T07:18:17.806Z,8.82
2022-11-01T07:23:17.050Z,9.88
2022-11-01T07:25:45.267Z,9.32
2022-11-01T07:28:13.269Z,9.65
2022-11-01T07:30:41.714Z,8.93
2022-11-01T07:33:09.342Z,9.07
2022-11-01T07:35:37.039Z,9.00
2022-11-01T07:38:07.998Z,8.68
2022-11-01T07:40:44.763Z,8.68
2022-11-01T07:43:12.176Z,8.30
2022-11-01T07:45:39.696Z,8.43
2022-11-01T07:48:12.075Z,8.70
2022-11-01T07:50:41.866Z,8.65
2022-11-01T07:53:14.916Z,8.70
2022-11-01T07:55:42.888Z,8.15
2022-11-01T07:58:11.970Z,8.10
2022-11-01T08:00:43.665Z,7.85
2022-11-01T08:03:16.776Z,8.35
2022-11-01T08:14:45.755Z,8.15
2022-11-01T08:21:30.301Z,8.05
2022-11-01T08:26:30.624Z,15.95
2022-11-01T08:31:56.790Z,7.82
2022-11-01T08:34:24.512Z,13.43
2022-11-01T08:39:42.516Z,8.48
2022-11-01T09:28:37.529Z,8.50
2022-11-01T09:31:21.442Z,9.30
2022-11-01T09:39:49.295Z,9.18
2022-11-01T09:42:37.264Z,9.45
2022-11-01T09:51:27.143Z,8.18
2022-11-01T09:54:19.984Z,7.45
2022-11-01T10:40:09.288Z,7.07
2022-11-01T10:42:37.861Z,7.25
2022-11-01T10:45:10.832Z,7.03
2022-11-01T10:47:39.189Z,7.22
2022-11-01T10:50:19.074Z,7.05
2022-11-01T10:52:52.569Z,7.28
2022-11-01T10:55:33.091Z,6.80
2022-11-01T10:58:07.488Z,7.32
2022-11-01T11:00:41.776Z,7.05
2022-11-01T11:03:24.268Z,7.05
2022-11-01T11:05:53.375Z,7.10
2022-11-01T11:08:24.807Z,7.18
2022-11-01T11:10:53.923Z,7.03
2022-11-01T11:13:24.362Z,7.18
2022-11-01T11:16:05.144Z,7.15
2022-11-01T11:18:38.677Z,7.32
2022-11-01T11:21:13.517Z,7.82
2022-11-01T11:23:46.611Z,7.60
2022-11-01T11:26:18.261Z,10.13
2022-11-01T11:28:53.487Z,9.07
2022-11-01T11:31:36.476Z,9.98
2022-11-01T11:34:23.447Z,9.38
2022-11-01T11:36:53.816Z,22.63
2022-11-01T11:39:29.661Z,13.32
2022-11-01T11:42:19.285Z,14.75
2022-11-01T11:44:55.859Z,13.07
2022-11-01T11:47:29.210Z,10.20
2022-11-01T11:50:00.218Z,12.05
2022-11-01T11:52:38.106Z,9.18
2022-11-01T11:55:27.872Z,10.35
2022-11-01T11:57:57.184Z,9.90
2022-11-01T12:00:29.827Z,13.73
2022-11-01T12:02:57.533Z,9.77
2022-11-01T12:05:26.872Z,8.57
2022-11-01T12:07:57.050Z,13.05
2022-11-01T12:10:36.940Z,8.75
2022-11-01T12:13:26.887Z,7.90
2022-11-01T12:16:20.458Z,7.95
2022-11-01T12:19:00.334Z,8.88
2022-11-01T12:21:45.057Z,8.40
2022-11-01T12:24:25.156Z,8.52
2022-11-01T12:27:04.199Z,8.55
2022-11-01T12:29:41.374Z,8.30
2022-11-01T12:32:20.177Z,8.07
2022-11-01T12:34:51.133Z,8.32
2022-11-01T12:37:50.497Z,9.52
2022-11-01T12:40:41.236Z,15.60
2022-11-01T12:43:52.722Z,9.35
2022-11-01T12:46:40.023Z,11.45
2022-11-01T12:49:23.592Z,11.80
2022-11-01T12:51:56.917Z,8.88
2022-11-01T12:54:41.308Z,9.35
2022-11-01T12:57:18.482Z,8.38
2022-11-01T12:59:48.160Z,9.18
2022-11-01T13:02:46.515Z,8.35
2022-11-01T13:05:23.621Z,7.97
2022-11-01T13:08:21.575Z,8.65
2022-11-01T13:10:49.936Z,8.98
2022-11-01T13:13:22.821Z,8.43
2022-11-01T13:16:09.117Z,8.50
2022-11-01T13:19:14.317Z,8.65
2022-11-01T13:25:14.899Z,8.98
2022-11-01T13:28:07.929Z,7.97
2022-11-01T13:30:43.695Z,7.97
2022-11-01T13:33:44.281Z,7.80
2022-11-01T13:36:48.426Z,8.50
2022-11-01T13:39:42.368Z,7.22
2022-11-01T13:51:47.863Z,8.30
2022-11-01T13:57:09.513Z,8.05
2022-11-01T13:59:42.900Z,8.65
2022-11-01T14:02:29.335Z,7.87
2022-11-01T14:05:05.059Z,8.90
2022-11-01T14:07:51.472Z,8.68
2022-11-01T14:10:25.602Z,8.40
2022-11-01T14:16:15.748Z,8.23
2022-11-01T14:19:05.080Z,8.18
2022-11-01T14:21:45.144Z,7.75
2022-11-01T14:24:34.888Z,8.10
2022-11-01T14:27:34.093Z,8.35
2022-11-01T14:30:07.669Z,7.80
2022-11-01T14:32:36.342Z,8.10
2022-11-01T14:35:21.876Z,8.07
2022-11-01T14:37:54.336Z,9.00
2022-11-01T14:40:39.099Z,9.07
2022-11-01T14:43:36.404Z,8.70
2022-11-01T14:46:11.953Z,8.23
2022-11-01T14:49:25.031Z,8.68
2022-11-01T14:52:12.314Z,8.75
2022-11-01T14:55:21.049Z,7.97
2022-11-01T14:57:49.971Z,8.75
2022-11-01T15:00:31.361Z,8.65
2022-11-01T15:03:09.797Z,10.40
2022-11-01T15:28:18.533Z,8.73
2022-11-01T16:16:16.554Z,14.93
2022-11-01T16:18:46.692Z,12.98
2022-11-01T16:30:32.016Z,9.63
2022-11-01T17:55:07.400Z,12.77
2022-11-01T18:21:43.938Z,13.32
2022-11-01T18:27:41.487Z,16.30
2022-11-01T18:30:15.394Z,17.07
2022-11-01T18:32:58.904Z,17.60
2022-11-01T18:35:34.100Z,16.85
2022-11-01T18:44:36.911Z,14.77
2022-11-01T18:47:23.783Z,15.57
2022-11-01T18:49:59.062Z,16.08
2022-11-01T18:52:29.448Z,15.38
2022-11-01T18:57:44.481Z,14.73
2022-11-01T19:00:27.184Z,16.23
2022-11-01T19:03:00.723Z,14.45
2022-11-01T19:05:32.982Z,16.08
2022-11-01T19:08:11.027Z,15.35
2022-11-01T19:10:43.249Z,21.02
2022-11-01T19:16:42.860Z,23.23
2022-11-01T19:19:20.671Z,24.13
2022-11-01T19:22:04.928Z,24.80
2022-11-01T19:24:40.955Z,23.13
2022-11-01T19:27:26.124Z,22.23
2022-11-01T19:29:57.917Z,18.15
2022-11-01T19:32:27.135Z,16.48
2022-11-01T19:35:00.243Z,16.27
2022-11-01T19:40:49.462Z,14.43
2022-11-01T19:43:39.146Z,14.35
2022-11-01T19:46:17.147Z,15.43
2022-11-01T19:48:45.938Z,15.85
2022-11-01T19:51:26.859Z,15.77
2022-11-01T19:53:56.860Z,15.60
2022-11-01T19:56:30.129Z,14.95
2022-11-01T19:59:01.073Z,15.70
2022-11-01T20:01:44.853Z,16.02
2022-11-01T20:04:31.463Z,15.48
2022-11-01T20:07:16.276Z,16.20
2022-11-01T20:12:44.757Z,16.60
2022-11-01T20:17:57.750Z,16.55
2022-11-01T20:20:30.584Z,15.85
2022-11-01T20:23:24.503Z,16.60
2022-11-01T20:25:49.971Z,16.08
2022-11-01T20:28:34.454Z,17.52
2022-11-01T20:31:04.190Z,16.48
2022-11-01T20:42:04.636Z,17.20
2022-11-01T20:44:43.522Z,17.55
2022-11-01T20:49:59.292Z,16.65
2022-11-01T20:52:40.429Z,15.38
2022-11-01T20:55:24.232Z,16.10
2022-11-01T21:01:30.255Z,14.82
2022-11-01T21:09:47.534Z,14.32
2022-11-01T21:12:50.305Z,14.60
2022-11-01T21:15:40.164Z,14.07
2022-11-01T21:18:34.092Z,13.77
2022-11-01T21:21:18.612Z,13.90
2022-11-01T21:26:26.783Z,13.10
2022-11-01T21:33:02.175Z,13.70
2022-11-01T21:50:03.788Z,14.38
2022-11-01T21:52:34.738Z,14.20
2022-11-01T21:55:02.767Z,14.60
2022-11-01T21:57:30.300Z,14.93
2022-11-01T21:59:57.884Z,17.67
2022-11-01T22:02:28.773Z,14.80
2022-11-01T22:04:56.707Z,14.60
2022-11-01T22:07:24.248Z,15.77
2022-11-01T22:09:51.826Z,15.27
2022-11-01T22:12:21.920Z,16.23
2022-11-01T22:14:49.919Z,17.08
2022-11-01T22:17:18.025Z,16.73
2022-11-01T22:19:45.770Z,18.63
2022-11-01T22:22:13.292Z,18.17
2022-11-01T22:24:41.588Z,18.92
2022-11-01T22:27:09.055Z,19.25
2022-11-01T22:29:36.745Z,19.70
2022-11-01T22:32:04.729Z,19.70
2022-11-01T22:34:32.357Z,18.85
2022-11-01T22:52:32.717Z,16.83
2022-11-01T22:55:25.067Z,18.02
2022-11-01T22:58:03.980Z,18.10
2022-11-01T23:00:44.018Z,19.27
2022-11-01T23:03:33.637Z,16.42
2022-11-01T23:09:26.225Z,16.95
2022-11-01T23:14:51.700Z,19.17
2022-11-01T23:17:34.956Z,18.73
2022-11-01T23:20:32.185Z,18.70
2022-11-01T23:23:11.445Z,16.95
2022-11-01T23:25:45.874Z,17.02
2022-11-01T23:28:24.409Z,19.10
2022-11-01T23:30:57.996Z,18.35
2022-11-01T23:33:37.307Z,18.75
2022-11-01T23:36:12.403Z,18.08
2022-11-01T23:38:54.184Z,17.92
2022-11-01T23:41:48.009Z,17.13
2022-11-01T23:44:37.211Z,19.10
2022-11-01T23:47:38.672Z,17.40
2022-11-01T23:50:34.807Z,17.08
2022-11-01T23:53:20.655Z,17.10
2022-11-01T23:55:53.162Z,16.88
2022-11-01T23:58:30.747Z,18.08
